CCA8586 ZYCC-ZSPD
Flight info
| Callsign | CCA8586 |
|---|---|
| Flight time | 2h 21m |
| Altitude | 36100 |
| Route | LEMOT9D LEMOT A588 BIDIB A575 DDG H114 DONVO A326 IVPIP X187 SOSMA W108 MATNU |
| Aircraft | A320/M-SDE3FGHIRWY/LB1 |
Departure
| Time | 2026-05-06 13:15 |
|---|---|
| Airport | Changchun Longjia International Airport (ZYCC) |
Arrival
| Time | 2026-05-06 15:36 |
|---|---|
| Airport | Shanghai Pudong International Airport (ZSPD) |
| Time | Latitude | Longitude | Altitude | Speed | Heading |
|---|---|---|---|---|---|
| 2026-05-06 12:32 | 43.99786 | 125.69570 | 714 ft | 0 kts | 138° |
| 2026-05-06 13:05 | 43.99792 | 125.69563 | 717 ft | 3 kts | 139° |
| 2026-05-06 13:06 | 43.99808 | 125.69545 | 718 ft | 3 kts | 143° |
| 2026-05-06 13:06 | 43.99822 | 125.69530 | 717 ft | 3 kts | 141° |
| 2026-05-06 13:06 | 43.99835 | 125.69512 | 719 ft | 3 kts | 105° |
| 2026-05-06 13:06 | 43.99834 | 125.69491 | 718 ft | 3 kts | 53° |
| 2026-05-06 13:07 | 43.99821 | 125.69470 | 715 ft | 3 kts | 49° |
| 2026-05-06 13:07 | 43.99819 | 125.69467 | 717 ft | 1 kts | 49° |
| 2026-05-06 13:09 | 43.99821 | 125.69469 | 716 ft | 1 kts | 49° |
| 2026-05-06 13:09 | 43.99829 | 125.69483 | 716 ft | 3 kts | 49° |
| 2026-05-06 13:10 | 43.99852 | 125.69514 | 717 ft | 6 kts | 30° |
| 2026-05-06 13:10 | 43.99891 | 125.69497 | 716 ft | 7 kts | 322° |
| 2026-05-06 13:10 | 43.99933 | 125.69449 | 714 ft | 9 kts | 319° |
| 2026-05-06 13:10 | 43.99987 | 125.69440 | 719 ft | 9 kts | 32° |
| 2026-05-06 13:11 | 44.00033 | 125.69510 | 715 ft | 11 kts | 49° |
| 2026-05-06 13:11 | 44.00085 | 125.69595 | 716 ft | 13 kts | 49° |
| 2026-05-06 13:11 | 44.00147 | 125.69694 | 716 ft | 15 kts | 49° |
| 2026-05-06 13:11 | 44.00218 | 125.69808 | 718 ft | 17 kts | 49° |
| 2026-05-06 13:12 | 44.00299 | 125.69938 | 717 ft | 19 kts | 49° |
| 2026-05-06 13:12 | 44.00389 | 125.70082 | 715 ft | 20 kts | 49° |
| 2026-05-06 13:12 | 44.00439 | 125.70155 | 717 ft | 7 kts | 27° |
| 2026-05-06 13:12 | 44.00484 | 125.70122 | 718 ft | 9 kts | 317° |
| 2026-05-06 13:13 | 44.00533 | 125.70059 | 716 ft | 11 kts | 317° |
| 2026-05-06 13:13 | 44.00560 | 125.70000 | 717 ft | 7 kts | 252° |
| 2026-05-06 13:13 | 44.00534 | 125.69963 | 716 ft | 0 kts | 230° |
| 2026-05-06 13:14 | 44.00516 | 125.69934 | 717 ft | 20 kts | 230° |
| 2026-05-06 13:14 | 44.00265 | 125.69529 | 716 ft | 88 kts | 229° |
| 2026-05-06 13:14 | 43.99744 | 125.68692 | 718 ft | 139 kts | 229° |
| 2026-05-06 13:15 | 43.99033 | 125.67543 | 834 ft | 166 kts | 230° |
| 2026-05-06 13:15 | 43.98286 | 125.66337 | 1527 ft | 162 kts | 230° |
| 2026-05-06 13:15 | 43.97552 | 125.65153 | 2172 ft | 161 kts | 230° |
| 2026-05-06 13:15 | 43.96819 | 125.63977 | 2740 ft | 161 kts | 230° |
| 2026-05-06 13:16 | 43.96093 | 125.62816 | 3247 ft | 162 kts | 230° |
| 2026-05-06 13:16 | 43.95345 | 125.61617 | 3757 ft | 163 kts | 231° |
| 2026-05-06 13:16 | 43.94583 | 125.60394 | 4035 ft | 180 kts | 230° |
| 2026-05-06 13:16 | 43.93713 | 125.58995 | 4252 ft | 203 kts | 230° |
| 2026-05-06 13:17 | 43.92739 | 125.57434 | 4443 ft | 227 kts | 230° |
| 2026-05-06 13:17 | 43.91649 | 125.55684 | 4743 ft | 252 kts | 230° |
| 2026-05-06 13:17 | 43.90458 | 125.53773 | 5237 ft | 269 kts | 230° |
| 2026-05-06 13:17 | 43.89213 | 125.51778 | 6001 ft | 277 kts | 230° |
| 2026-05-06 13:18 | 43.87941 | 125.49744 | 6765 ft | 282 kts | 230° |
| 2026-05-06 13:18 | 43.86644 | 125.47669 | 7518 ft | 287 kts | 230° |
| 2026-05-06 13:18 | 43.85323 | 125.45561 | 8292 ft | 292 kts | 230° |
| 2026-05-06 13:18 | 43.83979 | 125.43418 | 9065 ft | 297 kts | 230° |
| 2026-05-06 13:19 | 43.82617 | 125.41247 | 9831 ft | 301 kts | 230° |
| 2026-05-06 13:19 | 43.81106 | 125.39165 | 10253 ft | 318 kts | 217° |
| 2026-05-06 13:19 | 43.79094 | 125.37680 | 10411 ft | 340 kts | 198° |
| 2026-05-06 13:19 | 43.76714 | 125.37167 | 10768 ft | 353 kts | 178° |
| 2026-05-06 13:20 | 43.74292 | 125.37738 | 11368 ft | 356 kts | 160° |
| 2026-05-06 13:20 | 43.71979 | 125.38994 | 12028 ft | 359 kts | 158° |
| 2026-05-06 13:20 | 43.69653 | 125.40289 | 12667 ft | 362 kts | 159° |
| 2026-05-06 13:20 | 43.67307 | 125.41598 | 13279 ft | 366 kts | 160° |
| 2026-05-06 13:21 | 43.64936 | 125.42923 | 13902 ft | 369 kts | 161° |
| 2026-05-06 13:21 | 43.62540 | 125.44260 | 14465 ft | 373 kts | 162° |
| 2026-05-06 13:21 | 43.60126 | 125.45604 | 15030 ft | 376 kts | 163° |
| 2026-05-06 13:21 | 43.57694 | 125.46957 | 15593 ft | 378 kts | 163° |
| 2026-05-06 13:22 | 43.55246 | 125.48327 | 16140 ft | 381 kts | 164° |
| 2026-05-06 13:22 | 43.52779 | 125.49715 | 16684 ft | 384 kts | 165° |
| 2026-05-06 13:22 | 43.50290 | 125.51086 | 17243 ft | 384 kts | 169° |
| 2026-05-06 13:22 | 43.47725 | 125.51932 | 17796 ft | 376 kts | 181° |
| 2026-05-06 13:23 | 43.45149 | 125.52057 | 18353 ft | 367 kts | 193° |
| 2026-05-06 13:23 | 43.42666 | 125.51506 | 18869 ft | 357 kts | 203° |
| 2026-05-06 13:23 | 43.40361 | 125.50382 | 19451 ft | 348 kts | 212° |
| 2026-05-06 13:23 | 43.38215 | 125.48885 | 20035 ft | 346 kts | 214° |
| 2026-05-06 13:24 | 43.36078 | 125.47369 | 20612 ft | 346 kts | 214° |
| 2026-05-06 13:24 | 43.33940 | 125.45855 | 21159 ft | 346 kts | 214° |
| 2026-05-06 13:24 | 43.31796 | 125.44343 | 21686 ft | 346 kts | 214° |
| 2026-05-06 13:24 | 43.29651 | 125.42834 | 22205 ft | 347 kts | 214° |
| 2026-05-06 13:25 | 43.27498 | 125.41318 | 22713 ft | 348 kts | 213° |
| 2026-05-06 13:25 | 43.25345 | 125.39802 | 23226 ft | 349 kts | 213° |
| 2026-05-06 13:25 | 43.23185 | 125.38284 | 23682 ft | 350 kts | 213° |
| 2026-05-06 13:25 | 43.21014 | 125.36762 | 24068 ft | 351 kts | 213° |
| 2026-05-06 13:26 | 43.18834 | 125.35232 | 24423 ft | 353 kts | 213° |
| 2026-05-06 13:26 | 43.16646 | 125.33695 | 24772 ft | 355 kts | 213° |
| 2026-05-06 13:26 | 43.14446 | 125.32147 | 25122 ft | 357 kts | 213° |
| 2026-05-06 13:26 | 43.12233 | 125.30594 | 25467 ft | 359 kts | 213° |
| 2026-05-06 13:27 | 43.10004 | 125.29033 | 25807 ft | 361 kts | 214° |
| 2026-05-06 13:27 | 43.07764 | 125.27465 | 26135 ft | 363 kts | 214° |
| 2026-05-06 13:27 | 43.05509 | 125.25890 | 26422 ft | 366 kts | 213° |
| 2026-05-06 13:27 | 43.03232 | 125.24302 | 26729 ft | 369 kts | 213° |
| 2026-05-06 13:28 | 43.00941 | 125.22707 | 27062 ft | 371 kts | 213° |
| 2026-05-06 13:28 | 42.98634 | 125.21101 | 27386 ft | 373 kts | 213° |
| 2026-05-06 13:28 | 42.96310 | 125.19499 | 27732 ft | 377 kts | 212° |
| 2026-05-06 13:28 | 42.93809 | 125.18280 | 28048 ft | 389 kts | 202° |
| 2026-05-06 13:29 | 42.91092 | 125.17726 | 28374 ft | 403 kts | 192° |
| 2026-05-06 13:29 | 42.88241 | 125.17844 | 28641 ft | 414 kts | 186° |
| 2026-05-06 13:29 | 42.85375 | 125.17960 | 29015 ft | 407 kts | 192° |
| 2026-05-06 13:29 | 42.82602 | 125.17498 | 29435 ft | 396 kts | 201° |
| 2026-05-06 13:30 | 42.79994 | 125.16461 | 29892 ft | 386 kts | 209° |
| 2026-05-06 13:30 | 42.77588 | 125.14933 | 30315 ft | 379 kts | 215° |
| 2026-05-06 13:30 | 42.75253 | 125.13273 | 30699 ft | 378 kts | 215° |
| 2026-05-06 13:30 | 42.72951 | 125.11649 | 31088 ft | 378 kts | 215° |
| 2026-05-06 13:31 | 42.70619 | 125.10013 | 31484 ft | 377 kts | 215° |
| 2026-05-06 13:31 | 42.68290 | 125.08385 | 31832 ft | 376 kts | 215° |
| 2026-05-06 13:31 | 42.65960 | 125.06761 | 32200 ft | 376 kts | 216° |
| 2026-05-06 13:31 | 42.63630 | 125.05138 | 32595 ft | 376 kts | 216° |
| 2026-05-06 13:32 | 42.61305 | 125.03519 | 32999 ft | 375 kts | 216° |
| 2026-05-06 13:32 | 42.58986 | 125.01908 | 33414 ft | 374 kts | 216° |
| 2026-05-06 13:32 | 42.56671 | 125.00299 | 33831 ft | 373 kts | 216° |
| 2026-05-06 13:32 | 42.54364 | 124.98693 | 34042 ft | 373 kts | 217° |
| 2026-05-06 13:33 | 42.52039 | 124.97065 | 34064 ft | 380 kts | 217° |
| 2026-05-06 13:33 | 42.47309 | 124.93751 | 34081 ft | 384 kts | 216° |
| 2026-05-06 13:34 | 42.42543 | 124.90447 | 34078 ft | 385 kts | 216° |
| 2026-05-06 13:34 | 42.38579 | 124.87705 | 34077 ft | 385 kts | 216° |
| 2026-05-06 13:35 | 42.33000 | 124.83838 | 34074 ft | 387 kts | 217° |
| 2026-05-06 13:35 | 42.29013 | 124.81084 | 34075 ft | 387 kts | 217° |
| 2026-05-06 13:36 | 42.24216 | 124.77780 | 34075 ft | 387 kts | 217° |
| 2026-05-06 13:36 | 42.19417 | 124.74477 | 34080 ft | 387 kts | 217° |
| 2026-05-06 13:37 | 42.14622 | 124.71184 | 34065 ft | 386 kts | 217° |
| 2026-05-06 13:37 | 42.09831 | 124.67898 | 34066 ft | 386 kts | 217° |
| 2026-05-06 13:38 | 42.05046 | 124.64614 | 34067 ft | 386 kts | 217° |
| 2026-05-06 13:38 | 42.00259 | 124.61340 | 34057 ft | 386 kts | 217° |
| 2026-05-06 13:39 | 41.95507 | 124.58018 | 34067 ft | 383 kts | 219° |
| 2026-05-06 13:39 | 41.90888 | 124.54467 | 34071 ft | 382 kts | 220° |
| 2026-05-06 13:40 | 41.85564 | 124.50296 | 34065 ft | 382 kts | 219° |
| 2026-05-06 13:40 | 41.81703 | 124.47328 | 34050 ft | 382 kts | 219° |
| 2026-05-06 13:41 | 41.77078 | 124.43822 | 34053 ft | 382 kts | 219° |
| 2026-05-06 13:41 | 41.72457 | 124.40323 | 34023 ft | 381 kts | 219° |
| 2026-05-06 13:42 | 41.67840 | 124.36823 | 34038 ft | 381 kts | 220° |
| 2026-05-06 13:42 | 41.63255 | 124.33343 | 34043 ft | 382 kts | 219° |
| 2026-05-06 13:43 | 41.58628 | 124.29848 | 34046 ft | 382 kts | 219° |
| 2026-05-06 13:43 | 41.53999 | 124.26359 | 34051 ft | 382 kts | 219° |
| 2026-05-06 13:44 | 41.49370 | 124.22873 | 34047 ft | 382 kts | 219° |
| 2026-05-06 13:44 | 41.44737 | 124.19395 | 34051 ft | 382 kts | 219° |
| 2026-05-06 13:44 | 41.42318 | 124.17849 | 34057 ft | 393 kts | 211° |
| 2026-05-06 13:45 | 41.39634 | 124.16884 | 34051 ft | 408 kts | 201° |
| 2026-05-06 13:45 | 41.33753 | 124.16883 | 34020 ft | 430 kts | 189° |
| 2026-05-06 13:45 | 41.30766 | 124.17150 | 34022 ft | 431 kts | 189° |
| 2026-05-06 13:46 | 41.24782 | 124.17678 | 34007 ft | 431 kts | 189° |
| 2026-05-06 13:46 | 41.18794 | 124.18185 | 34017 ft | 432 kts | 189° |
| 2026-05-06 13:47 | 41.12793 | 124.18680 | 34015 ft | 433 kts | 189° |
| 2026-05-06 13:47 | 41.06781 | 124.19181 | 34029 ft | 433 kts | 189° |
| 2026-05-06 13:48 | 41.00762 | 124.19745 | 34037 ft | 435 kts | 188° |
| 2026-05-06 13:48 | 40.94722 | 124.20466 | 34023 ft | 436 kts | 187° |
| 2026-05-06 13:49 | 40.88674 | 124.21202 | 34030 ft | 436 kts | 187° |
| 2026-05-06 13:49 | 40.82625 | 124.21905 | 34047 ft | 436 kts | 188° |
| 2026-05-06 13:50 | 40.76581 | 124.22591 | 34056 ft | 436 kts | 188° |
| 2026-05-06 13:50 | 40.70541 | 124.23274 | 34025 ft | 435 kts | 187° |
| 2026-05-06 13:51 | 40.64506 | 124.23952 | 34040 ft | 435 kts | 187° |
| 2026-05-06 13:51 | 40.58473 | 124.24634 | 34050 ft | 435 kts | 187° |
| 2026-05-06 13:52 | 40.52442 | 124.25317 | 34033 ft | 435 kts | 187° |
| 2026-05-06 13:52 | 40.46415 | 124.25998 | 34050 ft | 435 kts | 187° |
| 2026-05-06 13:53 | 40.40387 | 124.26675 | 34057 ft | 435 kts | 187° |
| 2026-05-06 13:53 | 40.34357 | 124.27354 | 34060 ft | 435 kts | 187° |
| 2026-05-06 13:54 | 40.28364 | 124.27774 | 34050 ft | 422 kts | 196° |
| 2026-05-06 13:54 | 40.25504 | 124.27276 | 34052 ft | 408 kts | 204° |
| 2026-05-06 13:54 | 40.22822 | 124.26261 | 34052 ft | 396 kts | 211° |
| 2026-05-06 13:55 | 40.17948 | 124.23189 | 34049 ft | 387 kts | 217° |
| 2026-05-06 13:55 | 40.13139 | 124.19985 | 34015 ft | 388 kts | 216° |
| 2026-05-06 13:56 | 40.08326 | 124.16800 | 34035 ft | 388 kts | 216° |
| 2026-05-06 13:56 | 40.03521 | 124.13617 | 34040 ft | 387 kts | 216° |
| 2026-05-06 13:57 | 39.98712 | 124.10442 | 34024 ft | 387 kts | 216° |
| 2026-05-06 13:57 | 39.93908 | 124.07263 | 34030 ft | 387 kts | 216° |
| 2026-05-06 13:58 | 39.89099 | 124.04082 | 34037 ft | 388 kts | 216° |
| 2026-05-06 13:58 | 39.84284 | 124.00915 | 34038 ft | 389 kts | 215° |
| 2026-05-06 13:59 | 39.81731 | 123.99623 | 34039 ft | 401 kts | 206° |
| 2026-05-06 13:59 | 39.78986 | 123.98933 | 34035 ft | 415 kts | 196° |
| 2026-05-06 13:59 | 39.73194 | 123.98412 | 34038 ft | 418 kts | 195° |
| 2026-05-06 14:00 | 39.67395 | 123.97891 | 34023 ft | 418 kts | 195° |
| 2026-05-06 14:00 | 39.61597 | 123.97352 | 34018 ft | 418 kts | 195° |
| 2026-05-06 14:01 | 39.55799 | 123.96812 | 34030 ft | 418 kts | 195° |
| 2026-05-06 14:01 | 39.49997 | 123.96289 | 34038 ft | 418 kts | 195° |
| 2026-05-06 14:02 | 39.44194 | 123.95765 | 34007 ft | 418 kts | 195° |
| 2026-05-06 14:02 | 39.38389 | 123.95242 | 34039 ft | 418 kts | 195° |
| 2026-05-06 14:03 | 39.32579 | 123.94712 | 34042 ft | 419 kts | 195° |
| 2026-05-06 14:03 | 39.26765 | 123.94180 | 34024 ft | 419 kts | 195° |
| 2026-05-06 14:04 | 39.20953 | 123.93651 | 34032 ft | 419 kts | 195° |
| 2026-05-06 14:04 | 39.15140 | 123.93120 | 34041 ft | 419 kts | 195° |
| 2026-05-06 14:05 | 39.09321 | 123.92596 | 34014 ft | 419 kts | 195° |
| 2026-05-06 14:05 | 39.03503 | 123.92081 | 34026 ft | 419 kts | 195° |
| 2026-05-06 14:06 | 38.97683 | 123.91568 | 34033 ft | 419 kts | 195° |
| 2026-05-06 14:06 | 38.91861 | 123.91047 | 34014 ft | 419 kts | 195° |
| 2026-05-06 14:07 | 38.86037 | 123.90517 | 34018 ft | 420 kts | 195° |
| 2026-05-06 14:07 | 38.80204 | 123.89989 | 34021 ft | 421 kts | 195° |
| 2026-05-06 14:08 | 38.74364 | 123.89466 | 34028 ft | 421 kts | 195° |
| 2026-05-06 14:08 | 38.71427 | 123.89203 | 34179 ft | 424 kts | 195° |
| 2026-05-06 14:08 | 38.68489 | 123.88940 | 34505 ft | 424 kts | 195° |
| 2026-05-06 14:09 | 38.65550 | 123.88681 | 34860 ft | 423 kts | 195° |
| 2026-05-06 14:09 | 38.62617 | 123.88421 | 35013 ft | 422 kts | 195° |
| 2026-05-06 14:09 | 38.56763 | 123.87900 | 35037 ft | 421 kts | 195° |
| 2026-05-06 14:10 | 38.50913 | 123.87378 | 35038 ft | 423 kts | 194° |
| 2026-05-06 14:10 | 38.45040 | 123.86860 | 35034 ft | 423 kts | 194° |
| 2026-05-06 14:11 | 38.39162 | 123.86351 | 35037 ft | 423 kts | 194° |
| 2026-05-06 14:11 | 38.33286 | 123.85827 | 35013 ft | 424 kts | 194° |
| 2026-05-06 14:12 | 38.27396 | 123.85306 | 35020 ft | 425 kts | 194° |
| 2026-05-06 14:12 | 38.21495 | 123.84790 | 35028 ft | 425 kts | 194° |
| 2026-05-06 14:13 | 38.15588 | 123.84268 | 34997 ft | 426 kts | 194° |
| 2026-05-06 14:13 | 38.09673 | 123.83744 | 35019 ft | 426 kts | 195° |
| 2026-05-06 14:14 | 38.06793 | 123.83137 | 35027 ft | 414 kts | 204° |
| 2026-05-06 14:14 | 38.04106 | 123.81975 | 35031 ft | 403 kts | 213° |
| 2026-05-06 14:14 | 37.99492 | 123.78258 | 35038 ft | 387 kts | 227° |
| 2026-05-06 14:15 | 37.95366 | 123.73862 | 35042 ft | 388 kts | 226° |
| 2026-05-06 14:15 | 37.91208 | 123.69494 | 35047 ft | 388 kts | 226° |
| 2026-05-06 14:16 | 37.87052 | 123.65124 | 35047 ft | 388 kts | 226° |
| 2026-05-06 14:16 | 37.82895 | 123.60765 | 35032 ft | 388 kts | 226° |
| 2026-05-06 14:17 | 37.78737 | 123.56406 | 35040 ft | 388 kts | 226° |
| 2026-05-06 14:17 | 37.74578 | 123.52041 | 35044 ft | 389 kts | 226° |
| 2026-05-06 14:18 | 37.70414 | 123.47677 | 35049 ft | 389 kts | 226° |
| 2026-05-06 14:18 | 37.66949 | 123.44053 | 35025 ft | 389 kts | 226° |
| 2026-05-06 14:19 | 37.62772 | 123.39689 | 35042 ft | 390 kts | 226° |
| 2026-05-06 14:19 | 37.58410 | 123.35570 | 35047 ft | 399 kts | 215° |
| 2026-05-06 14:20 | 37.55812 | 123.34207 | 35046 ft | 411 kts | 205° |
| 2026-05-06 14:20 | 37.52959 | 123.33526 | 35024 ft | 425 kts | 193° |
| 2026-05-06 14:20 | 37.46960 | 123.33607 | 35029 ft | 433 kts | 188° |
| 2026-05-06 14:21 | 37.39951 | 123.33818 | 35040 ft | 434 kts | 188° |
| 2026-05-06 14:21 | 37.34889 | 123.33958 | 35051 ft | 434 kts | 188° |
| 2026-05-06 14:22 | 37.28844 | 123.34123 | 35030 ft | 436 kts | 187° |
| 2026-05-06 14:22 | 37.22772 | 123.34296 | 35039 ft | 437 kts | 187° |
| 2026-05-06 14:23 | 37.16692 | 123.34466 | 35053 ft | 437 kts | 187° |
| 2026-05-06 14:23 | 37.10601 | 123.34634 | 35039 ft | 438 kts | 187° |
| 2026-05-06 14:24 | 37.04539 | 123.34815 | 35047 ft | 439 kts | 187° |
| 2026-05-06 14:24 | 36.98381 | 123.34985 | 35059 ft | 440 kts | 187° |
| 2026-05-06 14:25 | 36.92263 | 123.35149 | 35048 ft | 440 kts | 187° |
| 2026-05-06 14:25 | 36.86177 | 123.35323 | 35078 ft | 440 kts | 186° |
| 2026-05-06 14:26 | 36.80047 | 123.35499 | 35079 ft | 440 kts | 187° |
| 2026-05-06 14:26 | 36.73922 | 123.35670 | 35083 ft | 440 kts | 187° |
| 2026-05-06 14:27 | 36.67789 | 123.35841 | 35057 ft | 441 kts | 187° |
| 2026-05-06 14:27 | 36.61652 | 123.36011 | 35074 ft | 441 kts | 187° |
| 2026-05-06 14:28 | 36.55513 | 123.36178 | 35083 ft | 441 kts | 187° |
| 2026-05-06 14:28 | 36.49373 | 123.36349 | 35071 ft | 441 kts | 187° |
| 2026-05-06 14:29 | 36.43228 | 123.36520 | 35086 ft | 442 kts | 187° |
| 2026-05-06 14:29 | 36.37081 | 123.36696 | 35095 ft | 442 kts | 187° |
| 2026-05-06 14:30 | 36.30935 | 123.36871 | 35071 ft | 442 kts | 187° |
| 2026-05-06 14:30 | 36.24782 | 123.37043 | 35076 ft | 442 kts | 187° |
| 2026-05-06 14:31 | 36.18626 | 123.37216 | 35092 ft | 443 kts | 186° |
| 2026-05-06 14:31 | 36.12462 | 123.37400 | 35100 ft | 443 kts | 186° |
| 2026-05-06 14:32 | 36.06298 | 123.37566 | 35106 ft | 443 kts | 187° |
| 2026-05-06 14:32 | 36.00135 | 123.37733 | 35111 ft | 443 kts | 186° |
| 2026-05-06 14:33 | 35.93969 | 123.37911 | 35112 ft | 443 kts | 186° |
| 2026-05-06 14:33 | 35.87800 | 123.38088 | 35100 ft | 443 kts | 186° |
| 2026-05-06 14:34 | 35.81632 | 123.38257 | 35105 ft | 443 kts | 186° |
| 2026-05-06 14:34 | 35.75505 | 123.38426 | 35113 ft | 444 kts | 186° |
| 2026-05-06 14:35 | 35.69333 | 123.38605 | 35122 ft | 444 kts | 186° |
| 2026-05-06 14:35 | 35.63155 | 123.38781 | 35105 ft | 444 kts | 186° |
| 2026-05-06 14:36 | 35.56974 | 123.38955 | 35115 ft | 444 kts | 186° |
| 2026-05-06 14:36 | 35.50797 | 123.39118 | 35122 ft | 444 kts | 186° |
| 2026-05-06 14:37 | 35.44611 | 123.39288 | 35100 ft | 445 kts | 186° |
| 2026-05-06 14:37 | 35.38417 | 123.39460 | 35102 ft | 446 kts | 186° |
| 2026-05-06 14:38 | 35.32211 | 123.39631 | 35113 ft | 447 kts | 186° |
| 2026-05-06 14:38 | 35.25996 | 123.39808 | 35121 ft | 447 kts | 186° |
| 2026-05-06 14:39 | 35.19768 | 123.39982 | 35107 ft | 448 kts | 186° |
| 2026-05-06 14:39 | 35.13532 | 123.40150 | 35116 ft | 448 kts | 186° |
| 2026-05-06 14:40 | 35.07293 | 123.40318 | 35130 ft | 449 kts | 186° |
| 2026-05-06 14:40 | 35.01048 | 123.40489 | 35112 ft | 449 kts | 185° |
| 2026-05-06 14:41 | 34.94794 | 123.40827 | 35120 ft | 451 kts | 183° |
| 2026-05-06 14:41 | 34.88545 | 123.41228 | 35126 ft | 444 kts | 191° |
| 2026-05-06 14:42 | 34.85528 | 123.40678 | 35136 ft | 433 kts | 201° |
| 2026-05-06 14:42 | 34.82732 | 123.39433 | 35121 ft | 424 kts | 212° |
| 2026-05-06 14:42 | 34.78088 | 123.35291 | 35121 ft | 410 kts | 231° |
| 2026-05-06 14:43 | 34.74627 | 123.29834 | 35115 ft | 408 kts | 237° |
| 2026-05-06 14:43 | 34.71248 | 123.24290 | 35118 ft | 408 kts | 237° |
| 2026-05-06 14:44 | 34.67856 | 123.18750 | 35126 ft | 409 kts | 237° |
| 2026-05-06 14:45 | 34.62760 | 123.10420 | 35104 ft | 410 kts | 236° |
| 2026-05-06 14:45 | 34.59378 | 123.04897 | 35123 ft | 411 kts | 236° |
| 2026-05-06 14:46 | 34.55965 | 122.99334 | 35126 ft | 411 kts | 236° |
| 2026-05-06 14:46 | 34.52547 | 122.93778 | 35109 ft | 411 kts | 236° |
| 2026-05-06 14:47 | 34.49119 | 122.88216 | 35114 ft | 412 kts | 236° |
| 2026-05-06 14:47 | 34.45686 | 122.82647 | 35119 ft | 413 kts | 236° |
| 2026-05-06 14:48 | 34.42249 | 122.77071 | 35126 ft | 413 kts | 236° |
| 2026-05-06 14:48 | 34.38809 | 122.71500 | 35126 ft | 413 kts | 236° |
| 2026-05-06 14:49 | 34.35368 | 122.65930 | 35103 ft | 414 kts | 236° |
| 2026-05-06 14:49 | 34.31910 | 122.60348 | 35121 ft | 415 kts | 236° |
| 2026-05-06 14:50 | 34.28443 | 122.54770 | 35123 ft | 415 kts | 236° |
| 2026-05-06 14:50 | 34.24971 | 122.49197 | 35120 ft | 415 kts | 236° |
| 2026-05-06 14:51 | 34.21502 | 122.43632 | 35121 ft | 415 kts | 236° |
| 2026-05-06 14:51 | 34.18032 | 122.38065 | 35121 ft | 414 kts | 236° |
| 2026-05-06 14:52 | 34.14559 | 122.32514 | 35127 ft | 414 kts | 236° |
| 2026-05-06 14:52 | 34.11093 | 122.26966 | 35119 ft | 414 kts | 236° |
| 2026-05-06 14:53 | 34.07624 | 122.21418 | 35092 ft | 414 kts | 236° |
| 2026-05-06 14:53 | 34.04141 | 122.15883 | 35089 ft | 415 kts | 235° |
| 2026-05-06 14:54 | 34.00651 | 122.10340 | 35092 ft | 415 kts | 236° |
| 2026-05-06 14:54 | 33.97156 | 122.04788 | 35100 ft | 415 kts | 236° |
| 2026-05-06 14:55 | 33.93665 | 121.99248 | 35106 ft | 415 kts | 236° |
| 2026-05-06 14:55 | 33.90171 | 121.93706 | 35080 ft | 416 kts | 235° |
| 2026-05-06 14:56 | 33.86666 | 121.88162 | 35081 ft | 417 kts | 235° |
| 2026-05-06 14:56 | 33.83148 | 121.82613 | 35085 ft | 417 kts | 235° |
| 2026-05-06 14:57 | 33.79619 | 121.77061 | 35097 ft | 418 kts | 235° |
| 2026-05-06 14:57 | 33.76012 | 121.71594 | 35077 ft | 420 kts | 227° |
| 2026-05-06 14:57 | 33.73678 | 121.69447 | 35077 ft | 427 kts | 213° |
| 2026-05-06 14:58 | 33.70902 | 121.68098 | 35080 ft | 436 kts | 198° |
| 2026-05-06 14:58 | 33.67861 | 121.67678 | 35076 ft | 446 kts | 183° |
| 2026-05-06 14:58 | 33.64767 | 121.68270 | 35074 ft | 457 kts | 167° |
| 2026-05-06 14:59 | 33.58848 | 121.71079 | 35072 ft | 462 kts | 162° |
| 2026-05-06 14:59 | 33.52889 | 121.74020 | 35059 ft | 464 kts | 162° |
| 2026-05-06 15:00 | 33.46876 | 121.76972 | 35076 ft | 464 kts | 162° |
| 2026-05-06 15:00 | 33.40885 | 121.79889 | 35081 ft | 465 kts | 162° |
| 2026-05-06 15:01 | 33.34925 | 121.82788 | 35085 ft | 466 kts | 162° |
| 2026-05-06 15:01 | 33.28916 | 121.85709 | 35076 ft | 466 kts | 162° |
| 2026-05-06 15:02 | 33.22857 | 121.88648 | 35082 ft | 467 kts | 162° |
| 2026-05-06 15:02 | 33.16874 | 121.91557 | 35091 ft | 468 kts | 162° |
| 2026-05-06 15:03 | 33.10840 | 121.94480 | 35098 ft | 468 kts | 162° |
| 2026-05-06 15:03 | 33.04797 | 121.97386 | 35109 ft | 468 kts | 162° |
| 2026-05-06 15:04 | 32.98758 | 122.00296 | 35099 ft | 468 kts | 162° |
| 2026-05-06 15:04 | 32.92718 | 122.03213 | 35059 ft | 469 kts | 162° |
| 2026-05-06 15:04 | 32.89682 | 122.04674 | 34505 ft | 471 kts | 162° |
| 2026-05-06 15:05 | 32.86646 | 122.06138 | 33920 ft | 470 kts | 162° |
| 2026-05-06 15:05 | 32.84636 | 122.07105 | 33489 ft | 470 kts | 162° |
| 2026-05-06 15:05 | 32.81602 | 122.08563 | 32850 ft | 471 kts | 162° |
| 2026-05-06 15:05 | 32.78559 | 122.10026 | 32221 ft | 472 kts | 162° |
| 2026-05-06 15:06 | 32.75514 | 122.11490 | 31591 ft | 471 kts | 162° |
| 2026-05-06 15:06 | 32.72486 | 122.12946 | 30996 ft | 469 kts | 162° |
| 2026-05-06 15:06 | 32.69468 | 122.14392 | 30413 ft | 466 kts | 162° |
| 2026-05-06 15:06 | 32.66468 | 122.15823 | 29795 ft | 464 kts | 162° |
| 2026-05-06 15:07 | 32.63484 | 122.17248 | 29120 ft | 461 kts | 162° |
| 2026-05-06 15:07 | 32.60520 | 122.18667 | 28469 ft | 458 kts | 162° |
| 2026-05-06 15:07 | 32.57573 | 122.20078 | 27828 ft | 455 kts | 162° |
| 2026-05-06 15:07 | 32.54649 | 122.21479 | 27200 ft | 452 kts | 162° |
| 2026-05-06 15:08 | 32.51742 | 122.22866 | 26590 ft | 449 kts | 162° |
| 2026-05-06 15:08 | 32.48857 | 122.24239 | 25979 ft | 445 kts | 163° |
| 2026-05-06 15:08 | 32.45994 | 122.25601 | 25401 ft | 442 kts | 163° |
| 2026-05-06 15:08 | 32.43151 | 122.26951 | 24818 ft | 439 kts | 163° |
| 2026-05-06 15:09 | 32.40330 | 122.28292 | 24255 ft | 435 kts | 163° |
| 2026-05-06 15:09 | 32.37534 | 122.29624 | 23703 ft | 432 kts | 163° |
| 2026-05-06 15:09 | 32.34758 | 122.30945 | 23072 ft | 428 kts | 163° |
| 2026-05-06 15:09 | 32.32002 | 122.32253 | 22434 ft | 425 kts | 163° |
| 2026-05-06 15:10 | 32.29261 | 122.33552 | 21808 ft | 423 kts | 163° |
| 2026-05-06 15:10 | 32.26541 | 122.34840 | 21177 ft | 420 kts | 163° |
| 2026-05-06 15:10 | 32.23840 | 122.36121 | 20554 ft | 417 kts | 162° |
| 2026-05-06 15:10 | 32.21150 | 122.37397 | 19968 ft | 415 kts | 162° |
| 2026-05-06 15:11 | 32.18477 | 122.38663 | 19389 ft | 413 kts | 162° |
| 2026-05-06 15:11 | 32.15813 | 122.39923 | 18820 ft | 412 kts | 162° |
| 2026-05-06 15:11 | 32.13160 | 122.41177 | 18255 ft | 410 kts | 162° |
| 2026-05-06 15:11 | 32.10523 | 122.42422 | 17600 ft | 407 kts | 162° |
| 2026-05-06 15:12 | 32.07897 | 122.43658 | 16997 ft | 404 kts | 161° |
| 2026-05-06 15:12 | 32.05324 | 122.44870 | 16749 ft | 391 kts | 161° |
| 2026-05-06 15:12 | 32.02853 | 122.46038 | 16713 ft | 374 kts | 162° |
| 2026-05-06 15:12 | 32.00460 | 122.47169 | 16730 ft | 369 kts | 162° |
| 2026-05-06 15:13 | 31.98083 | 122.48291 | 16730 ft | 368 kts | 162° |
| 2026-05-06 15:13 | 31.95707 | 122.49407 | 16734 ft | 367 kts | 162° |
| 2026-05-06 15:13 | 31.93334 | 122.50518 | 16726 ft | 367 kts | 162° |
| 2026-05-06 15:13 | 31.90960 | 122.51630 | 16737 ft | 367 kts | 162° |
| 2026-05-06 15:14 | 31.88585 | 122.52745 | 16730 ft | 367 kts | 162° |
| 2026-05-06 15:14 | 31.86213 | 122.53858 | 16737 ft | 367 kts | 162° |
| 2026-05-06 15:14 | 31.83839 | 122.54971 | 16734 ft | 367 kts | 162° |
| 2026-05-06 15:14 | 31.81462 | 122.56084 | 16737 ft | 367 kts | 162° |
| 2026-05-06 15:15 | 31.79088 | 122.57197 | 16739 ft | 367 kts | 162° |
| 2026-05-06 15:15 | 31.76714 | 122.58310 | 16739 ft | 367 kts | 162° |
| 2026-05-06 15:15 | 31.74338 | 122.59421 | 16733 ft | 367 kts | 162° |
| 2026-05-06 15:15 | 31.71982 | 122.60521 | 16728 ft | 357 kts | 162° |
| 2026-05-06 15:16 | 31.69727 | 122.61581 | 16723 ft | 341 kts | 162° |
| 2026-05-06 15:16 | 31.67567 | 122.62599 | 16732 ft | 331 kts | 162° |
| 2026-05-06 15:16 | 31.65433 | 122.63599 | 16735 ft | 330 kts | 162° |
| 2026-05-06 15:16 | 31.63300 | 122.64605 | 16591 ft | 330 kts | 162° |
| 2026-05-06 15:17 | 31.61177 | 122.65594 | 16308 ft | 326 kts | 166° |
| 2026-05-06 15:17 | 31.58986 | 122.66083 | 16040 ft | 318 kts | 182° |
| 2026-05-06 15:17 | 31.56818 | 122.65842 | 15772 ft | 311 kts | 197° |
| 2026-05-06 15:17 | 31.54825 | 122.64929 | 15505 ft | 306 kts | 212° |
| 2026-05-06 15:18 | 31.53136 | 122.63446 | 15253 ft | 303 kts | 226° |
| 2026-05-06 15:18 | 31.51851 | 122.61515 | 14999 ft | 300 kts | 241° |
| 2026-05-06 15:18 | 31.50925 | 122.59328 | 14739 ft | 299 kts | 245° |
| 2026-05-06 15:18 | 31.50023 | 122.57135 | 14485 ft | 298 kts | 244° |
| 2026-05-06 15:19 | 31.49120 | 122.54950 | 14236 ft | 298 kts | 244° |
| 2026-05-06 15:19 | 31.48217 | 122.52774 | 13978 ft | 296 kts | 244° |
| 2026-05-06 15:19 | 31.47320 | 122.50614 | 13713 ft | 294 kts | 244° |
| 2026-05-06 15:19 | 31.46425 | 122.48461 | 13431 ft | 294 kts | 244° |
| 2026-05-06 15:20 | 31.45597 | 122.46283 | 13145 ft | 293 kts | 251° |
| 2026-05-06 15:20 | 31.45112 | 122.43975 | 12869 ft | 292 kts | 261° |
| 2026-05-06 15:20 | 31.45004 | 122.41610 | 12594 ft | 292 kts | 270° |
| 2026-05-06 15:20 | 31.45022 | 122.39237 | 12317 ft | 291 kts | 269° |
| 2026-05-06 15:21 | 31.45030 | 122.36869 | 12047 ft | 290 kts | 269° |
| 2026-05-06 15:21 | 31.45030 | 122.34523 | 11780 ft | 288 kts | 269° |
| 2026-05-06 15:21 | 31.45030 | 122.32184 | 11513 ft | 286 kts | 269° |
| 2026-05-06 15:21 | 31.45030 | 122.29875 | 11250 ft | 282 kts | 269° |
| 2026-05-06 15:22 | 31.45030 | 122.27591 | 10983 ft | 280 kts | 269° |
| 2026-05-06 15:22 | 31.45030 | 122.25302 | 10723 ft | 282 kts | 269° |
| 2026-05-06 15:22 | 31.45031 | 122.23019 | 10465 ft | 279 kts | 269° |
| 2026-05-06 15:22 | 31.45032 | 122.20741 | 10209 ft | 281 kts | 269° |
| 2026-05-06 15:23 | 31.45031 | 122.18454 | 9956 ft | 280 kts | 269° |
| 2026-05-06 15:23 | 31.45030 | 122.16189 | 9677 ft | 276 kts | 269° |
| 2026-05-06 15:23 | 31.45029 | 122.13957 | 9395 ft | 273 kts | 269° |
| 2026-05-06 15:23 | 31.45028 | 122.11752 | 9118 ft | 269 kts | 269° |
| 2026-05-06 15:24 | 31.45029 | 122.09573 | 8841 ft | 266 kts | 269° |
| 2026-05-06 15:24 | 31.45030 | 122.07424 | 8564 ft | 260 kts | 269° |
| 2026-05-06 15:24 | 31.45031 | 122.05378 | 8298 ft | 249 kts | 269° |
| 2026-05-06 15:24 | 31.45031 | 122.03397 | 8029 ft | 238 kts | 269° |
| 2026-05-06 15:25 | 31.45030 | 122.01495 | 7771 ft | 231 kts | 269° |
| 2026-05-06 15:25 | 31.45028 | 121.99617 | 7504 ft | 230 kts | 269° |
| 2026-05-06 15:25 | 31.45026 | 121.97750 | 7241 ft | 229 kts | 269° |
| 2026-05-06 15:25 | 31.45025 | 121.95891 | 6960 ft | 227 kts | 269° |
| 2026-05-06 15:26 | 31.45023 | 121.94049 | 6709 ft | 226 kts | 269° |
| 2026-05-06 15:26 | 31.45020 | 121.92191 | 6444 ft | 225 kts | 269° |
| 2026-05-06 15:26 | 31.45015 | 121.90385 | 6176 ft | 225 kts | 269° |
| 2026-05-06 15:26 | 31.45009 | 121.88563 | 5905 ft | 223 kts | 268° |
| 2026-05-06 15:27 | 31.45005 | 121.86756 | 5627 ft | 221 kts | 268° |
| 2026-05-06 15:27 | 31.45003 | 121.84966 | 5340 ft | 219 kts | 269° |
| 2026-05-06 15:27 | 31.44926 | 121.83192 | 5079 ft | 217 kts | 258° |
| 2026-05-06 15:27 | 31.44602 | 121.81458 | 4811 ft | 218 kts | 257° |
| 2026-05-06 15:28 | 31.44276 | 121.79734 | 4541 ft | 216 kts | 257° |
| 2026-05-06 15:28 | 31.43952 | 121.78025 | 4261 ft | 214 kts | 257° |
| 2026-05-06 15:28 | 31.43631 | 121.76328 | 3990 ft | 213 kts | 257° |
| 2026-05-06 15:28 | 31.43313 | 121.74641 | 3728 ft | 211 kts | 256° |
| 2026-05-06 15:29 | 31.42862 | 121.73027 | 3450 ft | 208 kts | 234° |
| 2026-05-06 15:29 | 31.41694 | 121.72113 | 3170 ft | 207 kts | 190° |
| 2026-05-06 15:29 | 31.40270 | 121.72300 | 2903 ft | 208 kts | 167° |
| 2026-05-06 15:29 | 31.38888 | 121.72801 | 2641 ft | 207 kts | 163° |
| 2026-05-06 15:30 | 31.37530 | 121.73354 | 2367 ft | 206 kts | 160° |
| 2026-05-06 15:30 | 31.36197 | 121.73943 | 2108 ft | 204 kts | 162° |
| 2026-05-06 15:30 | 31.34888 | 121.74469 | 2013 ft | 193 kts | 163° |
| 2026-05-06 15:30 | 31.33654 | 121.74943 | 2007 ft | 180 kts | 163° |
| 2026-05-06 15:31 | 31.32481 | 121.75389 | 2009 ft | 175 kts | 163° |
| 2026-05-06 15:31 | 31.31328 | 121.75825 | 2011 ft | 174 kts | 163° |
| 2026-05-06 15:31 | 31.30198 | 121.76254 | 2026 ft | 163 kts | 163° |
| 2026-05-06 15:32 | 31.28230 | 121.77000 | 2031 ft | 138 kts | 164° |
| 2026-05-06 15:32 | 31.27324 | 121.77342 | 2017 ft | 135 kts | 164° |
| 2026-05-06 15:32 | 31.26433 | 121.77679 | 1998 ft | 134 kts | 163° |
| 2026-05-06 15:32 | 31.25547 | 121.78014 | 1894 ft | 133 kts | 163° |
| 2026-05-06 15:33 | 31.24667 | 121.78347 | 1751 ft | 133 kts | 163° |
| 2026-05-06 15:33 | 31.23792 | 121.78678 | 1592 ft | 133 kts | 164° |
| 2026-05-06 15:33 | 31.22917 | 121.79008 | 1415 ft | 132 kts | 164° |
| 2026-05-06 15:33 | 31.22045 | 121.79338 | 1242 ft | 132 kts | 163° |
| 2026-05-06 15:34 | 31.21175 | 121.79666 | 1064 ft | 131 kts | 163° |
| 2026-05-06 15:34 | 31.20307 | 121.79990 | 889 ft | 131 kts | 163° |
| 2026-05-06 15:34 | 31.19445 | 121.80318 | 715 ft | 130 kts | 162° |
| 2026-05-06 15:34 | 31.18582 | 121.80645 | 558 ft | 129 kts | 160° |
| 2026-05-06 15:35 | 31.17728 | 121.80969 | 399 ft | 130 kts | 160° |
| 2026-05-06 15:35 | 31.16857 | 121.81297 | 217 ft | 132 kts | 161° |
| 2026-05-06 15:35 | 31.15984 | 121.81627 | 64 ft | 132 kts | 160° |
| 2026-05-06 15:35 | 31.15179 | 121.81936 | 23 ft | 103 kts | 162° |
| 2026-05-06 15:36 | 31.14666 | 121.82129 | 20 ft | 54 kts | 162° |
| 2026-05-06 15:36 | 31.14394 | 121.82232 | 23 ft | 34 kts | 162° |
| 2026-05-06 15:36 | 31.14176 | 121.82309 | 23 ft | 31 kts | 170° |
| 2026-05-06 15:36 | 31.13972 | 121.82296 | 22 ft | 27 kts | 190° |
| 2026-05-06 15:37 | 31.13831 | 121.82267 | 23 ft | 18 kts | 189° |
| 2026-05-06 15:37 | 31.13722 | 121.82277 | 23 ft | 17 kts | 164° |
| 2026-05-06 15:37 | 31.13606 | 121.82320 | 22 ft | 18 kts | 162° |
| 2026-05-06 15:37 | 31.13488 | 121.82364 | 23 ft | 13 kts | 163° |
| 2026-05-06 15:38 | 31.13401 | 121.82376 | 23 ft | 10 kts | 185° |
| 2026-05-06 15:38 | 31.13331 | 121.82368 | 23 ft | 12 kts | 180° |
| 2026-05-06 15:38 | 31.13264 | 121.82383 | 24 ft | 8 kts | 162° |
| 2026-05-06 15:38 | 31.13200 | 121.82407 | 22 ft | 11 kts | 162° |
| 2026-05-06 15:39 | 31.13117 | 121.82439 | 23 ft | 14 kts | 162° |
| 2026-05-06 15:39 | 31.13017 | 121.82476 | 23 ft | 17 kts | 162° |
| 2026-05-06 15:39 | 31.12900 | 121.82521 | 23 ft | 15 kts | 162° |
| 2026-05-06 15:39 | 31.12803 | 121.82557 | 22 ft | 16 kts | 162° |
| 2026-05-06 15:40 | 31.12739 | 121.82581 | 22 ft | 4 kts | 162° |
| 2026-05-06 15:40 | 31.12703 | 121.82573 | 22 ft | 7 kts | 219° |
| 2026-05-06 15:40 | 31.12683 | 121.82510 | 22 ft | 10 kts | 252° |
| 2026-05-06 15:40 | 31.12659 | 121.82422 | 22 ft | 13 kts | 251° |
| 2026-05-06 15:41 | 31.12631 | 121.82319 | 23 ft | 13 kts | 252° |
| 2026-05-06 15:41 | 31.12610 | 121.82230 | 24 ft | 10 kts | 271° |
| 2026-05-06 15:41 | 31.12644 | 121.82176 | 23 ft | 7 kts | 338° |
| 2026-05-06 15:41 | 31.12701 | 121.82160 | 23 ft | 9 kts | 343° |
| 2026-05-06 15:42 | 31.12771 | 121.82134 | 23 ft | 12 kts | 342° |
| 2026-05-06 15:42 | 31.12856 | 121.82101 | 23 ft | 14 kts | 342° |
| 2026-05-06 15:42 | 31.12959 | 121.82063 | 22 ft | 17 kts | 342° |
| 2026-05-06 15:42 | 31.13079 | 121.82018 | 22 ft | 19 kts | 342° |
| 2026-05-06 15:43 | 31.13211 | 121.81968 | 22 ft | 18 kts | 342° |
| 2026-05-06 15:43 | 31.13336 | 121.81920 | 22 ft | 20 kts | 342° |
| 2026-05-06 15:43 | 31.13476 | 121.81868 | 23 ft | 22 kts | 341° |
| 2026-05-06 15:43 | 31.13623 | 121.81812 | 22 ft | 16 kts | 341° |
| 2026-05-06 15:44 | 31.13696 | 121.81785 | 23 ft | 11 kts | 342° |
| 2026-05-06 15:44 | 31.13770 | 121.81757 | 23 ft | 11 kts | 342° |
| 2026-05-06 15:44 | 31.13847 | 121.81728 | 24 ft | 12 kts | 342° |
| 2026-05-06 15:44 | 31.13928 | 121.81698 | 25 ft | 13 kts | 341° |
| 2026-05-06 15:45 | 31.14013 | 121.81665 | 23 ft | 13 kts | 342° |
| 2026-05-06 15:45 | 31.14101 | 121.81632 | 23 ft | 14 kts | 342° |
| 2026-05-06 15:45 | 31.14194 | 121.81598 | 23 ft | 14 kts | 342° |
| 2026-05-06 15:45 | 31.14291 | 121.81561 | 23 ft | 15 kts | 341° |
| 2026-05-06 15:46 | 31.14392 | 121.81522 | 23 ft | 16 kts | 342° |
| 2026-05-06 15:46 | 31.14484 | 121.81487 | 23 ft | 8 kts | 341° |
| 2026-05-06 15:46 | 31.14516 | 121.81438 | 24 ft | 8 kts | 270° |
| 2026-05-06 15:46 | 31.14506 | 121.81394 | 23 ft | 9 kts | 251° |
| 2026-05-06 15:47 | 31.14487 | 121.81325 | 23 ft | 9 kts | 252° |
| 2026-05-06 15:47 | 31.14467 | 121.81250 | 25 ft | 10 kts | 251° |
| 2026-05-06 15:47 | 31.14487 | 121.81165 | 23 ft | 9 kts | 336° |
| 2026-05-06 15:47 | 31.14529 | 121.81148 | 23 ft | 10 kts | 342° |
| 2026-05-06 15:48 | 31.14595 | 121.81124 | 23 ft | 10 kts | 342° |
| 2026-05-06 15:48 | 31.14665 | 121.81097 | 23 ft | 11 kts | 342° |
| 2026-05-06 15:48 | 31.14739 | 121.81070 | 23 ft | 11 kts | 342° |
| 2026-05-06 15:48 | 31.14815 | 121.81041 | 24 ft | 12 kts | 342° |
| 2026-05-06 15:49 | 31.14892 | 121.81012 | 23 ft | 9 kts | 342° |
| 2026-05-06 15:49 | 31.14942 | 121.81006 | 23 ft | 5 kts | 37° |
| 2026-05-06 15:49 | 31.14953 | 121.81048 | 23 ft | 6 kts | 72° |
| 2026-05-06 15:49 | 31.14960 | 121.81074 | 23 ft | 0 kts | 72° |
| 2026-05-06 15:50 | 31.14961 | 121.81076 | 23 ft | 1 kts | 72° |
| 2026-05-06 15:50 | 31.14963 | 121.81084 | 23 ft | 1 kts | 72° |